sensor_id;sensor_type;location;lat;lon;timestamp;pressure;altitude;pressure_sealevel;temperature;humidity
77778;BME280;66966;-34.746;138.604;2023-07-31T00:01:02;102634.71;;;14.99;45.58
77778;BME280;66966;-34.746;138.604;2023-07-31T00:03:28;102639.22;;;15.17;45.84
77778;BME280;66966;-34.746;138.604;2023-07-31T00:05:53;102645.28;;;15.01;45.75
77778;BME280;66966;-34.746;138.604;2023-07-31T00:08:19;102646.98;;;15.51;45.33
77778;BME280;66966;-34.746;138.604;2023-07-31T00:10:45;102650.19;;;15.01;45.60
77778;BME280;66966;-34.746;138.604;2023-07-31T00:13:10;102649.02;;;15.10;45.48
77778;BME280;66966;-34.746;138.604;2023-07-31T00:15:36;102649.86;;;15.16;46.00
77778;BME280;66966;-34.746;138.604;2023-07-31T00:18:02;102652.19;;;15.33;45.53
77778;BME280;66966;-34.746;138.604;2023-07-31T00:20:27;102657.56;;;15.49;45.35
77778;BME280;66966;-34.746;138.604;2023-07-31T00:22:53;102659.02;;;15.29;45.40
77778;BME280;66966;-34.746;138.604;2023-07-31T00:25:18;102661.70;;;15.67;45.02
77778;BME280;66966;-34.746;138.604;2023-07-31T00:27:44;102663.00;;;15.56;44.86
77778;BME280;66966;-34.746;138.604;2023-07-31T00:30:10;102666.77;;;15.53;44.48
77778;BME280;66966;-34.746;138.604;2023-07-31T00:32:35;102669.21;;;15.62;44.37
77778;BME280;66966;-34.746;138.604;2023-07-31T00:35:01;102675.58;;;15.68;44.12
77778;BME280;66966;-34.746;138.604;2023-07-31T00:37:26;102681.54;;;15.76;44.09
77778;BME280;66966;-34.746;138.604;2023-07-31T00:39:52;102683.87;;;15.72;44.23
77778;BME280;66966;-34.746;138.604;2023-07-31T00:42:18;102691.93;;;15.82;44.15
77778;BME280;66966;-34.746;138.604;2023-07-31T00:44:43;102694.71;;;15.77;43.61
77778;BME280;66966;-34.746;138.604;2023-07-31T00:47:09;102697.08;;;15.72;43.01
77778;BME280;66966;-34.746;138.604;2023-07-31T00:49:34;102698.56;;;15.17;42.81
77778;BME280;66966;-34.746;138.604;2023-07-31T00:52:00;102704.98;;;15.72;43.07
77778;BME280;66966;-34.746;138.604;2023-07-31T00:54:26;102705.98;;;15.67;42.54
77778;BME280;66966;-34.746;138.604;2023-07-31T00:56:52;102708.44;;;15.59;42.46
77778;BME280;66966;-34.746;138.604;2023-07-31T00:59:17;102717.48;;;15.49;42.03
77778;BME280;66966;-34.746;138.604;2023-07-31T01:01:43;102719.97;;;15.63;41.61
77778;BME280;66966;-34.746;138.604;2023-07-31T01:04:08;102722.88;;;15.57;41.67
77778;BME280;66966;-34.746;138.604;2023-07-31T01:06:40;102727.54;;;15.29;41.92
77778;BME280;66966;-34.746;138.604;2023-07-31T01:09:03;102728.81;;;15.50;41.24
77778;BME280;66966;-34.746;138.604;2023-07-31T01:11:29;102735.56;;;15.73;41.74
77778;BME280;66966;-34.746;138.604;2023-07-31T01:13:51;102736.26;;;15.53;40.98
77778;BME280;66966;-34.746;138.604;2023-07-31T01:16:16;102738.73;;;15.58;41.74
77778;BME280;66966;-34.746;138.604;2023-07-31T01:18:42;102744.10;;;15.56;41.30
77778;BME280;66966;-34.746;138.604;2023-07-31T01:21:18;102746.94;;;15.84;40.87
77778;BME280;66966;-34.746;138.604;2023-07-31T01:26:05;102755.57;;;15.51;39.84
77778;BME280;66966;-34.746;138.604;2023-07-31T01:28:30;102756.58;;;15.53;40.44
77778;BME280;66966;-34.746;138.604;2023-07-31T01:30:50;102758.81;;;15.60;40.41
77778;BME280;66966;-34.746;138.604;2023-07-31T01:33:16;102753.47;;;15.22;41.19
77778;BME280;66966;-34.746;138.604;2023-07-31T01:35:45;102753.47;;;15.34;41.63
77778;BME280;66966;-34.746;138.604;2023-07-31T01:38:07;102749.23;;;15.33;41.89
77778;BME280;66966;-34.746;138.604;2023-07-31T01:40:33;102747.01;;;14.68;42.28
77778;BME280;66966;-34.746;138.604;2023-07-31T01:42:58;102749.55;;;15.28;42.69
77778;BME280;66966;-34.746;138.604;2023-07-31T01:45:24;102747.39;;;15.43;42.86
77778;BME280;66966;-34.746;138.604;2023-07-31T01:47:50;102746.95;;;15.74;42.76
77778;BME280;66966;-34.746;138.604;2023-07-31T01:50:15;102748.15;;;15.93;42.36
77778;BME280;66966;-34.746;138.604;2023-07-31T01:52:41;102754.46;;;15.88;42.65
77778;BME280;66966;-34.746;138.604;2023-07-31T01:55:06;102756.30;;;16.10;42.56
77778;BME280;66966;-34.746;138.604;2023-07-31T01:57:32;102750.04;;;15.41;43.09
77778;BME280;66966;-34.746;138.604;2023-07-31T01:59:58;102748.60;;;15.73;43.32
77778;BME280;66966;-34.746;138.604;2023-07-31T02:02:23;102743.96;;;15.77;43.57
77778;BME280;66966;-34.746;138.604;2023-07-31T02:04:49;102743.78;;;15.94;43.19
77778;BME280;66966;-34.746;138.604;2023-07-31T02:07:14;102745.19;;;15.91;42.65
77778;BME280;66966;-34.746;138.604;2023-07-31T02:09:39;102737.61;;;15.83;42.46
77778;BME280;66966;-34.746;138.604;2023-07-31T02:12:05;102737.79;;;15.55;42.53
77778;BME280;66966;-34.746;138.604;2023-07-31T02:14:30;102736.82;;;15.75;42.50
77778;BME280;66966;-34.746;138.604;2023-07-31T02:16:56;102737.76;;;15.70;42.37
77778;BME280;66966;-34.746;138.604;2023-07-31T02:19:21;102730.75;;;15.77;42.66
77778;BME280;66966;-34.746;138.604;2023-07-31T02:21:47;102722.85;;;15.86;42.76
77778;BME280;66966;-34.746;138.604;2023-07-31T02:24:13;102724.41;;;15.71;42.08
77778;BME280;66966;-34.746;138.604;2023-07-31T02:26:38;102728.31;;;15.34;41.86
77778;BME280;66966;-34.746;138.604;2023-07-31T02:29:03;102732.36;;;15.96;42.24
77778;BME280;66966;-34.746;138.604;2023-07-31T02:31:29;102726.32;;;15.83;42.41
77778;BME280;66966;-34.746;138.604;2023-07-31T02:33:54;102727.53;;;15.99;42.22
77778;BME280;66966;-34.746;138.604;2023-07-31T02:36:20;102727.73;;;15.96;42.12
77778;BME280;66966;-34.746;138.604;2023-07-31T02:38:46;102722.16;;;15.57;42.65
77778;BME280;66966;-34.746;138.604;2023-07-31T02:41:11;102724.85;;;15.72;42.68
77778;BME280;66966;-34.746;138.604;2023-07-31T02:43:37;102722.31;;;15.53;42.37
77778;BME280;66966;-34.746;138.604;2023-07-31T02:46:02;102718.37;;;15.73;42.74
77778;BME280;66966;-34.746;138.604;2023-07-31T02:48:28;102714.23;;;15.88;42.77
77778;BME280;66966;-34.746;138.604;2023-07-31T02:50:54;102714.62;;;15.73;43.01
77778;BME280;66966;-34.746;138.604;2023-07-31T02:53:19;102711.10;;;15.71;43.65
77778;BME280;66966;-34.746;138.604;2023-07-31T02:55:44;102709.84;;;15.50;43.90
77778;BME280;66966;-34.746;138.604;2023-07-31T02:58:10;102708.88;;;15.67;43.83
77778;BME280;66966;-34.746;138.604;2023-07-31T03:00:35;102707.87;;;15.49;43.71
77778;BME280;66966;-34.746;138.604;2023-07-31T03:03:01;102704.55;;;15.42;43.60
77778;BME280;66966;-34.746;138.604;2023-07-31T03:05:26;102703.63;;;15.42;43.35
77778;BME280;66966;-34.746;138.604;2023-07-31T03:07:52;102703.06;;;15.10;43.82
77778;BME280;66966;-34.746;138.604;2023-07-31T03:10:18;102696.11;;;15.14;44.44
77778;BME280;66966;-34.746;138.604;2023-07-31T03:12:44;102696.38;;;15.27;44.26
77778;BME280;66966;-34.746;138.604;2023-07-31T03:15:10;102685.69;;;15.40;44.20
77778;BME280;66966;-34.746;138.604;2023-07-31T03:17:34;102684.35;;;15.35;43.16
77778;BME280;66966;-34.746;138.604;2023-07-31T03:20:00;102684.64;;;15.63;42.36
77778;BME280;66966;-34.746;138.604;2023-07-31T03:22:26;102681.03;;;15.70;42.20
77778;BME280;66966;-34.746;138.604;2023-07-31T03:24:51;102677.21;;;15.89;41.74
77778;BME280;66966;-34.746;138.604;2023-07-31T03:27:17;102670.56;;;15.65;41.11
77778;BME280;66966;-34.746;138.604;2023-07-31T03:29:42;102666.07;;;15.58;41.08
77778;BME280;66966;-34.746;138.604;2023-07-31T03:32:08;102661.05;;;15.63;41.12
77778;BME280;66966;-34.746;138.604;2023-07-31T03:34:34;102656.56;;;15.27;41.16
77778;BME280;66966;-34.746;138.604;2023-07-31T03:36:59;102651.97;;;16.23;40.53
77778;BME280;66966;-34.746;138.604;2023-07-31T03:39:25;102651.62;;;15.90;40.62
77778;BME280;66966;-34.746;138.604;2023-07-31T03:41:50;102653.41;;;16.28;40.29
77778;BME280;66966;-34.746;138.604;2023-07-31T03:44:16;102654.99;;;16.55;39.18
77778;BME280;66966;-34.746;138.604;2023-07-31T03:46:42;102649.61;;;16.51;39.05
77778;BME280;66966;-34.746;138.604;2023-07-31T03:49:07;102646.29;;;16.43;38.22
77778;BME280;66966;-34.746;138.604;2023-07-31T03:51:33;102642.94;;;16.05;38.24
77778;BME280;66966;-34.746;138.604;2023-07-31T03:53:58;102639.55;;;16.64;38.13
77778;BME280;66966;-34.746;138.604;2023-07-31T03:56:24;102631.50;;;16.60;38.48
77778;BME280;66966;-34.746;138.604;2023-07-31T03:58:50;102624.34;;;16.89;38.82
77778;BME280;66966;-34.746;138.604;2023-07-31T04:01:15;102612.11;;;16.73;37.88
77778;BME280;66966;-34.746;138.604;2023-07-31T04:03:41;102616.56;;;16.52;37.57
77778;BME280;66966;-34.746;138.604;2023-07-31T04:06:06;102615.90;;;16.39;37.46
77778;BME280;66966;-34.746;138.604;2023-07-31T04:08:31;102616.79;;;16.71;37.88
77778;BME280;66966;-34.746;138.604;2023-07-31T04:10:58;102612.83;;;16.75;38.28
77778;BME280;66966;-34.746;138.604;2023-07-31T04:13:23;102613.07;;;16.82;38.22
77778;BME280;66966;-34.746;138.604;2023-07-31T04:15:50;102610.71;;;16.73;37.84
77778;BME280;66966;-34.746;138.604;2023-07-31T04:18:14;102612.34;;;17.01;37.83
77778;BME280;66966;-34.746;138.604;2023-07-31T04:20:39;102611.20;;;16.66;37.14
77778;BME280;66966;-34.746;138.604;2023-07-31T04:23:05;102606.35;;;16.45;37.17
77778;BME280;66966;-34.746;138.604;2023-07-31T04:25:31;102608.57;;;16.85;37.22
77778;BME280;66966;-34.746;138.604;2023-07-31T04:27:56;102609.29;;;16.80;36.68
77778;BME280;66966;-34.746;138.604;2023-07-31T04:30:22;102608.70;;;16.68;37.09
77778;BME280;66966;-34.746;138.604;2023-07-31T04:32:47;102609.54;;;16.60;37.21
77778;BME280;66966;-34.746;138.604;2023-07-31T04:35:13;102613.16;;;16.58;36.95
77778;BME280;66966;-34.746;138.604;2023-07-31T04:37:38;102617.03;;;16.37;37.08
77778;BME280;66966;-34.746;138.604;2023-07-31T04:40:04;102619.14;;;16.64;36.91
77778;BME280;66966;-34.746;138.604;2023-07-31T04:42:30;102622.14;;;16.61;36.99
77778;BME280;66966;-34.746;138.604;2023-07-31T04:44:55;102621.54;;;16.56;36.79
77778;BME280;66966;-34.746;138.604;2023-07-31T04:47:21;102620.16;;;16.63;36.75
77778;BME280;66966;-34.746;138.604;2023-07-31T04:49:46;102621.20;;;17.06;37.46
77778;BME280;66966;-34.746;138.604;2023-07-31T04:52:12;102619.52;;;16.81;36.84
77778;BME280;66966;-34.746;138.604;2023-07-31T04:54:38;102620.27;;;16.97;36.61
77778;BME280;66966;-34.746;138.604;2023-07-31T04:57:03;102622.21;;;17.08;36.55
77778;BME280;66966;-34.746;138.604;2023-07-31T04:59:29;102617.76;;;16.71;36.36
77778;BME280;66966;-34.746;138.604;2023-07-31T05:01:54;102618.92;;;17.25;36.02
77778;BME280;66966;-34.746;138.604;2023-07-31T05:04:20;102625.13;;;16.96;36.36
77778;BME280;66966;-34.746;138.604;2023-07-31T05:06:45;102626.51;;;17.04;36.27
77778;BME280;66966;-34.746;138.604;2023-07-31T05:09:11;102625.67;;;16.85;35.81
77778;BME280;66966;-34.746;138.604;2023-07-31T05:11:36;102623.40;;;16.39;36.14
77778;BME280;66966;-34.746;138.604;2023-07-31T05:14:02;102624.75;;;16.56;36.23
77778;BME280;66966;-34.746;138.604;2023-07-31T05:16:27;102625.39;;;16.70;36.13
77778;BME280;66966;-34.746;138.604;2023-07-31T05:18:53;102625.15;;;16.35;36.31
77778;BME280;66966;-34.746;138.604;2023-07-31T05:21:18;102625.43;;;16.51;36.36
77778;BME280;66966;-34.746;138.604;2023-07-31T05:23:44;102625.26;;;16.80;36.29
77778;BME280;66966;-34.746;138.604;2023-07-31T05:26:09;102625.89;;;16.44;36.00
77778;BME280;66966;-34.746;138.604;2023-07-31T05:28:36;102628.02;;;15.89;36.34
77778;BME280;66966;-34.746;138.604;2023-07-31T05:31:01;102630.07;;;16.46;36.17
77778;BME280;66966;-34.746;138.604;2023-07-31T05:33:27;102636.10;;;16.44;36.40
77778;BME280;66966;-34.746;138.604;2023-07-31T05:35:52;102632.70;;;16.42;36.88
77778;BME280;66966;-34.746;138.604;2023-07-31T05:38:17;102632.46;;;16.40;37.09
77778;BME280;66966;-34.746;138.604;2023-07-31T05:40:44;102630.40;;;16.33;37.29
77778;BME280;66966;-34.746;138.604;2023-07-31T05:43:08;102636.33;;;16.65;37.43
77778;BME280;66966;-34.746;138.604;2023-07-31T05:45:34;102640.78;;;16.03;37.42
77778;BME280;66966;-34.746;138.604;2023-07-31T05:48:00;102642.12;;;16.65;37.34
77778;BME280;66966;-34.746;138.604;2023-07-31T05:50:25;102641.60;;;16.60;36.92
77778;BME280;66966;-34.746;138.604;2023-07-31T05:52:51;102642.19;;;16.38;36.82
77778;BME280;66966;-34.746;138.604;2023-07-31T05:55:16;102639.97;;;16.47;37.06
77778;BME280;66966;-34.746;138.604;2023-07-31T05:57:42;102642.56;;;16.51;37.03
77778;BME280;66966;-34.746;138.604;2023-07-31T06:00:09;102645.10;;;16.27;37.17
77778;BME280;66966;-34.746;138.604;2023-07-31T06:02:33;102645.16;;;16.00;37.12
77778;BME280;66966;-34.746;138.604;2023-07-31T06:04:58;102644.27;;;16.39;37.40
77778;BME280;66966;-34.746;138.604;2023-07-31T06:07:24;102647.05;;;16.40;37.61
77778;BME280;66966;-34.746;138.604;2023-07-31T06:09:50;102648.87;;;16.15;37.52
77778;BME280;66966;-34.746;138.604;2023-07-31T06:12:15;102651.29;;;16.58;37.98
77778;BME280;66966;-34.746;138.604;2023-07-31T06:14:41;102650.97;;;16.26;37.99
77778;BME280;66966;-34.746;138.604;2023-07-31T06:17:07;102657.86;;;16.18;37.95
77778;BME280;66966;-34.746;138.604;2023-07-31T06:19:32;102658.98;;;15.61;38.18
77778;BME280;66966;-34.746;138.604;2023-07-31T06:21:58;102660.04;;;16.12;38.37
77778;BME280;66966;-34.746;138.604;2023-07-31T06:24:24;102659.39;;;15.85;38.70
77778;BME280;66966;-34.746;138.604;2023-07-31T06:26:49;102666.66;;;16.34;38.84
77778;BME280;66966;-34.746;138.604;2023-07-31T06:29:14;102667.31;;;15.83;39.40
77778;BME280;66966;-34.746;138.604;2023-07-31T06:31:41;102670.83;;;15.97;39.58
77778;BME280;66966;-34.746;138.604;2023-07-31T06:34:06;102669.47;;;15.88;39.24
77778;BME280;66966;-34.746;138.604;2023-07-31T06:36:31;102670.12;;;16.15;38.95
77778;BME280;66966;-34.746;138.604;2023-07-31T06:38:56;102669.53;;;15.79;38.83
77778;BME280;66966;-34.746;138.604;2023-07-31T06:41:22;102668.23;;;16.20;38.56
77778;BME280;66966;-34.746;138.604;2023-07-31T06:43:47;102668.81;;;16.31;38.30
77778;BME280;66966;-34.746;138.604;2023-07-31T06:46:13;102666.31;;;16.04;38.31
77778;BME280;66966;-34.746;138.604;2023-07-31T06:48:39;102669.46;;;16.16;38.12
77778;BME280;66966;-34.746;138.604;2023-07-31T06:51:04;102673.58;;;16.14;37.70
77778;BME280;66966;-34.746;138.604;2023-07-31T06:53:31;102676.15;;;16.34;37.41
77778;BME280;66966;-34.746;138.604;2023-07-31T06:55:56;102679.88;;;16.14;37.55
77778;BME280;66966;-34.746;138.604;2023-07-31T06:58:21;102679.46;;;16.21;37.42
77778;BME280;66966;-34.746;138.604;2023-07-31T07:00:47;102678.65;;;16.38;37.53
77778;BME280;66966;-34.746;138.604;2023-07-31T07:03:12;102681.60;;;16.26;37.57
77778;BME280;66966;-34.746;138.604;2023-07-31T07:05:38;102684.41;;;16.22;37.64
77778;BME280;66966;-34.746;138.604;2023-07-31T07:08:03;102688.37;;;16.13;37.65
77778;BME280;66966;-34.746;138.604;2023-07-31T07:10:29;102686.61;;;16.33;37.90
77778;BME280;66966;-34.746;138.604;2023-07-31T07:12:55;102688.79;;;16.25;37.97
77778;BME280;66966;-34.746;138.604;2023-07-31T07:15:20;102688.60;;;16.05;38.07
77778;BME280;66966;-34.746;138.604;2023-07-31T07:17:46;102688.59;;;16.03;38.25
77778;BME280;66966;-34.746;138.604;2023-07-31T07:20:12;102694.43;;;16.38;38.16
77778;BME280;66966;-34.746;138.604;2023-07-31T07:22:37;102697.62;;;15.86;38.30
77778;BME280;66966;-34.746;138.604;2023-07-31T07:25:04;102696.29;;;15.64;37.98
77778;BME280;66966;-34.746;138.604;2023-07-31T07:27:28;102697.34;;;16.60;37.88
77778;BME280;66966;-34.746;138.604;2023-07-31T07:29:54;102698.51;;;16.17;38.11
77778;BME280;66966;-34.746;138.604;2023-07-31T07:32:20;102702.24;;;16.11;38.28
77778;BME280;66966;-34.746;138.604;2023-07-31T07:34:46;102705.04;;;16.11;38.45
77778;BME280;66966;-34.746;138.604;2023-07-31T07:37:12;102703.87;;;16.22;38.50
77778;BME280;66966;-34.746;138.604;2023-07-31T07:39:36;102711.35;;;15.62;38.85
77778;BME280;66966;-34.746;138.604;2023-07-31T07:42:02;102711.17;;;15.84;38.39
77778;BME280;66966;-34.746;138.604;2023-07-31T07:44:27;102712.73;;;15.95;38.35
77778;BME280;66966;-34.746;138.604;2023-07-31T07:46:53;102712.99;;;15.88;38.45
77778;BME280;66966;-34.746;138.604;2023-07-31T07:49:19;102715.15;;;15.63;39.14
77778;BME280;66966;-34.746;138.604;2023-07-31T07:51:44;102719.87;;;15.64;39.43
77778;BME280;66966;-34.746;138.604;2023-07-31T07:54:10;102717.68;;;15.67;39.46
77778;BME280;66966;-34.746;138.604;2023-07-31T07:56:35;102713.96;;;15.16;39.31
77778;BME280;66966;-34.746;138.604;2023-07-31T07:59:01;102713.08;;;15.70;39.16
77778;BME280;66966;-34.746;138.604;2023-07-31T08:01:27;102711.17;;;15.69;38.95
77778;BME280;66966;-34.746;138.604;2023-07-31T08:03:52;102713.02;;;15.68;38.92
77778;BME280;66966;-34.746;138.604;2023-07-31T08:06:18;102716.56;;;15.70;38.82
77778;BME280;66966;-34.746;138.604;2023-07-31T08:08:43;102718.75;;;15.44;38.84
77778;BME280;66966;-34.746;138.604;2023-07-31T08:11:09;102719.17;;;15.33;39.07
77778;BME280;66966;-34.746;138.604;2023-07-31T08:13:35;102719.13;;;14.86;38.96
77778;BME280;66966;-34.746;138.604;2023-07-31T08:16:00;102721.45;;;15.32;38.62
77778;BME280;66966;-34.746;138.604;2023-07-31T08:18:26;102723.89;;;15.23;38.54
77778;BME280;66966;-34.746;138.604;2023-07-31T08:20:52;102727.71;;;15.21;38.44
77778;BME280;66966;-34.746;138.604;2023-07-31T08:23:17;102728.41;;;15.18;38.37
77778;BME280;66966;-34.746;138.604;2023-07-31T08:25:44;102727.36;;;15.58;38.12
77778;BME280;66966;-34.746;138.604;2023-07-31T08:28:08;102733.75;;;15.32;37.62
77778;BME280;66966;-34.746;138.604;2023-07-31T08:30:35;102735.31;;;15.26;37.60
77778;BME280;66966;-34.746;138.604;2023-07-31T08:33:00;102740.60;;;15.17;37.73
77778;BME280;66966;-34.746;138.604;2023-07-31T08:35:27;102743.67;;;15.15;37.75
77778;BME280;66966;-34.746;138.604;2023-07-31T08:37:51;102740.61;;;15.15;37.96
77778;BME280;66966;-34.746;138.604;2023-07-31T08:40:17;102743.69;;;15.47;38.15
77778;BME280;66966;-34.746;138.604;2023-07-31T08:42:47;102747.80;;;15.32;38.04
77778;BME280;66966;-34.746;138.604;2023-07-31T08:45:09;102750.25;;;15.34;37.87
77778;BME280;66966;-34.746;138.604;2023-07-31T08:47:34;102754.89;;;14.87;37.80
77778;BME280;66966;-34.746;138.604;2023-07-31T08:50:02;102761.21;;;15.23;37.96
77778;BME280;66966;-34.746;138.604;2023-07-31T08:52:26;102761.21;;;15.28;38.01
77778;BME280;66966;-34.746;138.604;2023-07-31T08:54:51;102762.70;;;15.36;38.05
77778;BME280;66966;-34.746;138.604;2023-07-31T08:57:17;102770.02;;;15.67;38.04
77778;BME280;66966;-34.746;138.604;2023-07-31T08:59:43;102768.44;;;15.35;38.05
77778;BME280;66966;-34.746;138.604;2023-07-31T09:02:09;102775.91;;;15.40;38.21
77778;BME280;66966;-34.746;138.604;2023-07-31T09:04:33;102777.24;;;14.99;38.26
77778;BME280;66966;-34.746;138.604;2023-07-31T09:07:02;102779.46;;;15.21;38.40
77778;BME280;66966;-34.746;138.604;2023-07-31T09:09:24;102780.72;;;15.50;38.45
77778;BME280;66966;-34.746;138.604;2023-07-31T09:11:51;102782.69;;;15.33;38.31
77778;BME280;66966;-34.746;138.604;2023-07-31T09:14:17;102779.84;;;15.59;38.35
77778;BME280;66966;-34.746;138.604;2023-07-31T09:16:52;102782.93;;;15.36;38.36
77778;BME280;66966;-34.746;138.604;2023-07-31T09:19:07;102786.34;;;15.59;38.51
77778;BME280;66966;-34.746;138.604;2023-07-31T09:21:33;102787.75;;;15.13;38.60
77778;BME280;66966;-34.746;138.604;2023-07-31T09:23:58;102787.48;;;15.55;38.81
77778;BME280;66966;-34.746;138.604;2023-07-31T09:26:31;102792.10;;;15.51;38.95
77778;BME280;66966;-34.746;138.604;2023-07-31T09:28:49;102789.13;;;15.59;38.90
77778;BME280;66966;-34.746;138.604;2023-07-31T09:31:15;102784.88;;;15.65;38.98
77778;BME280;66966;-34.746;138.604;2023-07-31T09:36:06;102790.01;;;15.19;38.86
77778;BME280;66966;-34.746;138.604;2023-07-31T09:38:32;102791.92;;;15.66;38.95
77778;BME280;66966;-34.746;138.604;2023-07-31T09:40:59;102793.35;;;15.57;38.85
77778;BME280;66966;-34.746;138.604;2023-07-31T09:43:23;102791.63;;;15.25;38.85
77778;BME280;66966;-34.746;138.604;2023-07-31T09:45:52;102797.88;;;15.46;38.98
77778;BME280;66966;-34.746;138.604;2023-07-31T09:48:15;102796.98;;;15.42;39.01
77778;BME280;66966;-34.746;138.604;2023-07-31T09:50:41;102796.94;;;15.37;39.17
77778;BME280;66966;-34.746;138.604;2023-07-31T09:53:05;102793.74;;;15.44;39.18
77778;BME280;66966;-34.746;138.604;2023-07-31T09:55:31;102795.63;;;15.51;38.97
77778;BME280;66966;-34.746;138.604;2023-07-31T09:57:58;102800.07;;;15.48;39.06
77778;BME280;66966;-34.746;138.604;2023-07-31T10:00:22;102802.56;;;15.47;39.15
77778;BME280;66966;-34.746;138.604;2023-07-31T10:02:48;102799.44;;;15.40;39.33
77778;BME280;66966;-34.746;138.604;2023-07-31T10:05:14;102798.28;;;15.49;39.36
77778;BME280;66966;-34.746;138.604;2023-07-31T10:07:39;102799.15;;;15.57;39.17
77778;BME280;66966;-34.746;138.604;2023-07-31T10:10:05;102800.64;;;15.26;39.25
77778;BME280;66966;-34.746;138.604;2023-07-31T10:12:31;102803.05;;;15.52;39.09
77778;BME280;66966;-34.746;138.604;2023-07-31T10:14:56;102802.44;;;15.40;39.25
77778;BME280;66966;-34.746;138.604;2023-07-31T10:21:20;102803.04;;;13.89;39.40
77778;BME280;66966;-34.746;138.604;2023-07-31T10:21:24;102804.58;;;14.72;37.75
77778;BME280;66966;-34.746;138.604;2023-07-31T10:23:50;102804.33;;;16.19;37.54
77778;BME280;66966;-34.746;138.604;2023-07-31T10:26:16;102805.08;;;16.05;38.33
77778;BME280;66966;-34.746;138.604;2023-07-31T10:28:40;102810.06;;;15.59;39.02
77778;BME280;66966;-34.746;138.604;2023-07-31T10:31:06;102809.16;;;15.34;39.49
77778;BME280;66966;-34.746;138.604;2023-07-31T10:33:31;102810.43;;;15.49;39.62
77778;BME280;66966;-34.746;138.604;2023-07-31T10:38:25;102817.10;;;15.22;40.15
77778;BME280;66966;-34.746;138.604;2023-07-31T10:40:51;102817.25;;;15.10;40.48
77778;BME280;66966;-34.746;138.604;2023-07-31T10:45:41;102817.65;;;15.10;40.80
77778;BME280;66966;-34.746;138.604;2023-07-31T10:48:06;102821.98;;;14.96;40.80
77778;BME280;66966;-34.746;138.604;2023-07-31T10:50:32;102823.92;;;15.20;40.89
77778;BME280;66966;-34.746;138.604;2023-07-31T10:52:57;102823.30;;;15.06;41.29
77778;BME280;66966;-34.746;138.604;2023-07-31T10:55:29;102826.22;;;14.81;41.67
77778;BME280;66966;-34.746;138.604;2023-07-31T10:57:49;102827.28;;;14.74;42.17
77778;BME280;66966;-34.746;138.604;2023-07-31T11:00:21;102828.70;;;15.07;42.28
77778;BME280;66966;-34.746;138.604;2023-07-31T11:02:39;102825.70;;;14.85;42.31
77778;BME280;66966;-34.746;138.604;2023-07-31T11:05:08;102827.18;;;15.11;42.21
77778;BME280;66966;-34.746;138.604;2023-07-31T11:09:56;102833.86;;;15.04;41.79
77778;BME280;66966;-34.746;138.604;2023-07-31T11:12:22;102836.19;;;15.13;41.67
77778;BME280;66966;-34.746;138.604;2023-07-31T11:14:54;102836.62;;;15.15;41.45
77778;BME280;66966;-34.746;138.604;2023-07-31T11:17:13;102837.00;;;15.18;41.36
77778;BME280;66966;-34.746;138.604;2023-07-31T11:19:39;102832.87;;;15.21;41.25
77778;BME280;66966;-34.746;138.604;2023-07-31T11:22:06;102830.88;;;14.83;41.40
77778;BME280;66966;-34.746;138.604;2023-07-31T11:24:30;102831.24;;;15.37;41.36
77778;BME280;66966;-34.746;138.604;2023-07-31T11:26:55;102835.30;;;15.47;41.59
77778;BME280;66966;-34.746;138.604;2023-07-31T11:29:22;102838.12;;;14.87;41.76
77778;BME280;66966;-34.746;138.604;2023-07-31T11:31:47;102841.64;;;14.88;41.71
77778;BME280;66966;-34.746;138.604;2023-07-31T11:34:13;102843.23;;;14.81;41.75
77778;BME280;66966;-34.746;138.604;2023-07-31T11:36:38;102843.75;;;14.82;41.77
77778;BME280;66966;-34.746;138.604;2023-07-31T11:39:08;102846.90;;;15.10;41.68
77778;BME280;66966;-34.746;138.604;2023-07-31T11:41:30;102850.46;;;15.29;41.73
77778;BME280;66966;-34.746;138.604;2023-07-31T11:43:59;102851.60;;;14.79;41.73
77778;BME280;66966;-34.746;138.604;2023-07-31T11:46:21;102854.06;;;14.74;41.82
77778;BME280;66966;-34.746;138.604;2023-07-31T11:48:46;102853.14;;;14.72;41.88
77778;BME280;66966;-34.746;138.604;2023-07-31T11:51:13;102856.46;;;14.70;41.78
77778;BME280;66966;-34.746;138.604;2023-07-31T11:53:41;102856.94;;;14.67;41.75
77778;BME280;66966;-34.746;138.604;2023-07-31T11:56:04;102853.42;;;14.66;41.64
77778;BME280;66966;-34.746;138.604;2023-07-31T11:58:30;102855.12;;;14.62;41.64
77778;BME280;66966;-34.746;138.604;2023-07-31T12:00:54;102859.03;;;14.80;41.59
77778;BME280;66966;-34.746;138.604;2023-07-31T12:03:20;102859.14;;;14.51;41.63
77778;BME280;66966;-34.746;138.604;2023-07-31T12:05:47;102863.98;;;14.96;41.47
77778;BME280;66966;-34.746;138.604;2023-07-31T12:08:12;102867.19;;;14.66;41.39
77778;BME280;66966;-34.746;138.604;2023-07-31T12:10:37;102865.71;;;14.83;41.39
77778;BME280;66966;-34.746;138.604;2023-07-31T12:13:04;102870.54;;;14.53;41.51
77778;BME280;66966;-34.746;138.604;2023-07-31T12:15:35;102870.26;;;14.45;41.44
77778;BME280;66966;-34.746;138.604;2023-07-31T12:17:54;102869.15;;;14.59;41.48
77778;BME280;66966;-34.746;138.604;2023-07-31T12:20:21;102871.33;;;14.52;41.49
77778;BME280;66966;-34.746;138.604;2023-07-31T12:22:46;102869.29;;;14.44;41.64
77778;BME280;66966;-34.746;138.604;2023-07-31T12:25:16;102868.92;;;14.31;41.56